createdAt,value
2019-03-19T00:00:51.591Z,49.53
2019-03-19T00:01:54.028Z,49.45
2019-03-19T00:02:56.211Z,49.43
2019-03-19T00:03:58.770Z,49.38
2019-03-19T00:05:01.035Z,49.49
2019-03-19T00:06:04.150Z,49.35
2019-03-19T00:07:06.563Z,49.40
2019-03-19T00:08:10.868Z,49.32
2019-03-19T00:09:13.118Z,49.53
2019-03-19T00:10:15.430Z,49.45
2019-03-19T00:11:17.691Z,49.25
2019-03-19T00:12:19.891Z,49.39
2019-03-19T00:13:22.118Z,49.39
2019-03-19T00:14:24.950Z,49.40
2019-03-19T00:15:27.158Z,49.29
2019-03-19T00:16:29.360Z,49.30
2019-03-19T00:17:31.561Z,49.44
2019-03-19T00:18:33.875Z,49.27
2019-03-19T00:19:38.190Z,49.27
2019-03-19T00:20:40.092Z,49.22
2019-03-19T00:21:42.282Z,49.45
2019-03-19T00:22:45.613Z,49.38
2019-03-19T00:23:47.804Z,49.35
2019-03-19T00:24:49.998Z,49.38
2019-03-19T00:25:53.228Z,49.48
2019-03-19T00:26:57.387Z,49.24
2019-03-19T00:27:59.299Z,49.17
2019-03-19T00:29:01.421Z,49.24
2019-03-19T00:30:03.605Z,49.17
2019-03-19T00:31:05.712Z,49.18
2019-03-19T00:32:09.976Z,49.26
2019-03-19T00:33:12.164Z,49.29
2019-03-19T00:34:14.280Z,49.23
2019-03-19T00:35:16.487Z,49.17
2019-03-19T00:36:18.671Z,49.07
2019-03-19T00:37:20.853Z,49.13
2019-03-19T00:38:23.008Z,49.22
2019-03-19T00:39:25.115Z,49.23
2019-03-19T00:40:28.282Z,49.10
2019-03-19T00:41:31.596Z,49.22
2019-03-19T00:42:33.781Z,49.23
2019-03-19T00:43:35.977Z,49.34
2019-03-19T00:44:38.099Z,49.25
2019-03-19T00:45:40.286Z,49.16
2019-03-19T00:46:42.480Z,49.33
2019-03-19T00:47:44.656Z,49.24
2019-03-19T00:48:46.838Z,49.11
2019-03-19T00:49:49.023Z,49.18
2019-03-19T00:50:51.128Z,49.11
2019-03-19T00:51:53.306Z,49.20
2019-03-19T00:52:55.566Z,49.16
2019-03-19T00:53:57.755Z,49.12
2019-03-19T00:54:59.892Z,49.04
2019-03-19T00:56:02.076Z,49.14
2019-03-19T00:57:04.197Z,49.02
2019-03-19T00:58:06.382Z,49.24
2019-03-19T00:59:08.576Z,49.03
2019-03-19T01:00:10.776Z,49.20
2019-03-19T01:01:12.975Z,49.16
2019-03-19T01:02:16.730Z,49.02
2019-03-19T01:03:18.904Z,49.01
2019-03-19T01:04:24.080Z,49.14
2019-03-19T01:05:26.280Z,49.18
2019-03-19T01:06:28.472Z,49.07
2019-03-19T01:07:30.642Z,48.96
2019-03-19T01:08:32.818Z,49.04
2019-03-19T01:09:37.751Z,49.09
2019-03-19T01:10:39.940Z,49.07
2019-03-19T01:11:43.440Z,49.15
2019-03-19T01:12:45.558Z,49.13
2019-03-19T01:13:47.767Z,49.02
2019-03-19T01:14:50.005Z,48.96
2019-03-19T01:15:52.223Z,49.16
2019-03-19T01:16:54.422Z,49.07
2019-03-19T01:17:56.627Z,48.95
2019-03-19T01:18:59.016Z,48.92
2019-03-19T01:20:01.256Z,48.92
2019-03-19T01:21:03.451Z,49.10
2019-03-19T01:22:05.673Z,48.95
2019-03-19T01:23:07.904Z,49.18
2019-03-19T01:24:10.097Z,49.04
2019-03-19T01:25:12.338Z,48.93
2019-03-19T01:26:14.553Z,48.92
2019-03-19T01:27:16.765Z,48.88
2019-03-19T01:28:20.475Z,48.99
2019-03-19T01:29:22.686Z,48.92
2019-03-19T01:30:27.907Z,48.87
2019-03-19T01:31:30.133Z,48.97
2019-03-19T01:32:32.315Z,49.03
2019-03-19T01:33:34.517Z,49.06
2019-03-19T01:34:36.737Z,48.89
2019-03-19T01:35:40.670Z,48.86
2019-03-19T01:36:42.866Z,48.83
2019-03-19T01:37:45.075Z,48.99
2019-03-19T01:38:47.290Z,48.99
2019-03-19T01:39:49.499Z,48.83
2019-03-19T01:40:51.745Z,48.79
2019-03-19T01:41:53.971Z,48.92
2019-03-19T01:42:57.375Z,48.99
2019-03-19T01:43:59.509Z,48.83
2019-03-19T01:45:01.723Z,48.89
2019-03-19T01:46:03.959Z,48.83
2019-03-19T01:47:06.187Z,48.97
2019-03-19T01:48:08.379Z,48.98
2019-03-19T01:49:10.590Z,48.77
2019-03-19T01:50:12.793Z,48.82
2019-03-19T01:51:15.027Z,48.86
2019-03-19T01:52:17.233Z,48.93
2019-03-19T01:53:19.429Z,48.84
2019-03-19T01:54:21.647Z,48.87
2019-03-19T01:55:25.676Z,48.77
2019-03-19T01:56:28.034Z,48.94
2019-03-19T01:57:30.249Z,48.77
2019-03-19T01:58:32.444Z,48.74
2019-03-19T01:59:34.730Z,48.73
2019-03-19T02:00:37.152Z,48.73
2019-03-19T02:01:39.373Z,48.72
2019-03-19T02:02:41.579Z,48.86
2019-03-19T02:03:43.767Z,48.80
2019-03-19T02:04:46.382Z,48.81
2019-03-19T02:05:51.123Z,48.89
2019-03-19T02:06:53.313Z,48.88
2019-03-19T02:07:58.284Z,48.76
2019-03-19T02:09:00.488Z,48.79
2019-03-19T02:10:02.703Z,48.75
2019-03-19T02:11:04.927Z,48.75
2019-03-19T02:12:07.132Z,48.79
2019-03-19T02:13:09.342Z,48.72
2019-03-19T02:14:11.525Z,48.83
2019-03-19T02:15:13.850Z,48.81
2019-03-19T02:16:16.064Z,48.74
2019-03-19T02:17:18.272Z,48.78
2019-03-19T02:18:20.467Z,48.73
2019-03-19T02:19:22.667Z,48.65
2019-03-19T02:20:24.868Z,48.86
2019-03-19T02:21:27.083Z,48.71
2019-03-19T02:22:29.463Z,48.84
2019-03-19T02:23:31.730Z,48.66
2019-03-19T02:24:34.994Z,48.77
2019-03-19T02:25:40.267Z,48.74
2019-03-19T02:26:44.049Z,48.66
2019-03-19T02:27:46.255Z,48.81
2019-03-19T02:28:48.455Z,48.67
2019-03-19T02:29:50.700Z,48.72
2019-03-19T02:30:52.923Z,48.74
2019-03-19T02:31:55.119Z,48.74
2019-03-19T02:32:57.323Z,48.70
2019-03-19T02:34:02.501Z,48.67
2019-03-19T02:35:04.705Z,48.60
2019-03-19T02:36:06.940Z,48.66
2019-03-19T02:37:09.129Z,48.63
2019-03-19T02:38:11.335Z,48.75
2019-03-19T02:39:13.538Z,48.77
2019-03-19T02:40:15.741Z,48.64
2019-03-19T02:41:18.315Z,48.58
2019-03-19T02:42:20.573Z,48.69
2019-03-19T02:43:23.100Z,48.64
2019-03-19T02:44:25.365Z,48.60
2019-03-19T02:45:27.779Z,48.74
2019-03-19T02:46:30.116Z,48.66
2019-03-19T02:47:32.325Z,48.63
2019-03-19T02:48:34.519Z,48.67
2019-03-19T02:49:36.724Z,48.76
2019-03-19T02:50:38.936Z,48.65
2019-03-19T02:51:41.160Z,48.59
2019-03-19T02:52:43.381Z,48.66
2019-03-19T02:53:45.577Z,48.63
2019-03-19T02:54:47.791Z,48.60
2019-03-19T02:55:49.999Z,48.68
2019-03-19T02:56:52.229Z,48.78
2019-03-19T02:57:54.453Z,48.57
2019-03-19T02:58:56.666Z,48.67
2019-03-19T02:59:58.861Z,48.56
2019-03-19T03:01:01.100Z,48.58
2019-03-19T03:02:03.328Z,48.75
2019-03-19T03:03:05.523Z,48.75
2019-03-19T03:04:07.723Z,48.66
2019-03-19T03:05:09.943Z,48.65
2019-03-19T03:06:12.167Z,48.71
2019-03-19T03:07:14.372Z,48.61
2019-03-19T03:08:16.576Z,48.69
2019-03-19T03:09:18.772Z,48.60
2019-03-19T03:10:21.003Z,48.70
2019-03-19T03:11:23.224Z,48.66
2019-03-19T03:12:25.435Z,48.72
2019-03-19T03:13:30.529Z,48.57
2019-03-19T03:14:32.735Z,48.67
2019-03-19T03:15:34.930Z,48.57
2019-03-19T03:16:37.159Z,48.68
2019-03-19T03:17:39.351Z,48.58
2019-03-19T03:18:41.557Z,48.66
2019-03-19T03:19:43.901Z,48.60
2019-03-19T03:20:46.191Z,48.57
2019-03-19T03:21:48.430Z,48.69
2019-03-19T03:22:50.777Z,48.61
2019-03-19T03:23:52.977Z,48.63
2019-03-19T03:24:55.195Z,48.72
2019-03-19T03:25:57.408Z,48.57
2019-03-19T03:27:02.505Z,48.67
2019-03-19T03:28:04.910Z,48.59
2019-03-19T03:29:07.109Z,48.68
2019-03-19T03:30:09.319Z,48.64
2019-03-19T03:31:11.514Z,48.65
2019-03-19T03:32:13.738Z,48.57
2019-03-19T03:33:18.194Z,48.66
2019-03-19T03:34:20.363Z,48.68
2019-03-19T03:35:22.565Z,48.63
2019-03-19T03:36:24.814Z,48.68
2019-03-19T03:37:27.005Z,48.71
2019-03-19T03:38:31.940Z,48.58
2019-03-19T03:39:34.150Z,48.59
2019-03-19T03:40:36.344Z,48.55
2019-03-19T03:41:39.330Z,48.60
2019-03-19T03:42:43.023Z,48.56
2019-03-19T03:43:45.465Z,48.67
2019-03-19T03:44:47.676Z,48.54
2019-03-19T03:45:49.838Z,48.67
2019-03-19T03:46:54.114Z,48.66
2019-03-19T03:47:56.329Z,48.58
2019-03-19T03:48:58.534Z,48.63
2019-03-19T03:50:02.710Z,48.64
2019-03-19T03:51:04.584Z,48.63
2019-03-19T03:52:06.809Z,48.60
2019-03-19T03:53:09.011Z,48.52
2019-03-19T03:54:11.215Z,48.59
2019-03-19T03:55:13.418Z,48.55
2019-03-19T03:56:15.631Z,48.61
2019-03-19T03:57:17.832Z,48.59
2019-03-19T03:58:20.063Z,48.55
2019-03-19T03:59:22.263Z,48.68
2019-03-19T04:00:24.453Z,48.60
2019-03-19T04:01:26.660Z,48.59
2019-03-19T04:02:28.894Z,48.54
2019-03-19T04:03:31.110Z,48.54
2019-03-19T04:04:33.317Z,48.57
2019-03-19T04:05:35.521Z,48.52
2019-03-19T04:06:37.772Z,48.55
2019-03-19T04:07:39.970Z,48.59
2019-03-19T04:08:45.497Z,48.57
2019-03-19T04:09:47.704Z,48.58
2019-03-19T04:10:49.917Z,48.53
2019-03-19T04:11:52.139Z,48.53
2019-03-19T04:12:54.349Z,48.56
2019-03-19T04:13:56.551Z,48.61
2019-03-19T04:14:58.775Z,48.61
2019-03-19T04:16:00.977Z,48.52
2019-03-19T04:17:03.208Z,48.53
2019-03-19T04:18:05.411Z,48.64
2019-03-19T04:19:07.620Z,48.59
2019-03-19T04:20:09.862Z,48.62
2019-03-19T04:21:12.027Z,48.68
2019-03-19T04:22:15.884Z,48.58
2019-03-19T04:23:18.099Z,48.57
2019-03-19T04:24:20.312Z,48.56
2019-03-19T04:25:22.537Z,48.52
2019-03-19T04:26:24.844Z,48.57
2019-03-19T04:27:27.088Z,48.58
2019-03-19T04:28:29.271Z,48.70
2019-03-19T04:29:31.476Z,48.51
2019-03-19T04:30:33.751Z,48.56
2019-03-19T04:31:37.722Z,48.46
2019-03-19T04:32:39.806Z,48.49
2019-03-19T04:33:42.016Z,48.56
2019-03-19T04:34:44.236Z,48.53
2019-03-19T04:35:46.664Z,48.60
2019-03-19T04:36:48.860Z,48.56
2019-03-19T04:37:52.126Z,48.50
2019-03-19T04:38:54.273Z,48.50
2019-03-19T04:39:56.543Z,48.47
2019-03-19T04:40:58.813Z,48.59
2019-03-19T04:42:01.010Z,48.59
2019-03-19T04:43:03.226Z,48.52
2019-03-19T04:44:05.417Z,48.48
2019-03-19T04:45:07.620Z,48.49
2019-03-19T04:46:11.813Z,48.46
2019-03-19T04:47:13.714Z,48.57
2019-03-19T04:48:17.483Z,48.64
2019-03-19T04:49:19.691Z,48.48
2019-03-19T04:50:22.063Z,48.55
2019-03-19T04:51:24.283Z,48.51
2019-03-19T04:52:28.543Z,48.61
2019-03-19T04:53:30.737Z,48.46
2019-03-19T04:54:35.849Z,48.61
2019-03-19T04:55:38.058Z,48.50
2019-03-19T04:56:40.942Z,48.48
2019-03-19T04:57:43.164Z,48.60
2019-03-19T04:58:45.671Z,48.63
2019-03-19T04:59:47.887Z,48.46
2019-03-19T05:00:50.098Z,48.52
2019-03-19T05:01:53.330Z,48.52
2019-03-19T05:02:55.585Z,48.48
2019-03-19T05:03:57.778Z,48.48
2019-03-19T05:04:59.987Z,48.51
2019-03-19T05:06:03.771Z,48.56
2019-03-19T05:07:05.983Z,48.55
2019-03-19T05:08:08.200Z,48.50
2019-03-19T05:09:10.408Z,48.53
2019-03-19T05:10:12.623Z,48.56
2019-03-19T05:11:14.822Z,48.49
2019-03-19T05:12:20.033Z,48.46
2019-03-19T05:13:22.260Z,48.49
2019-03-19T05:14:24.467Z,48.46
2019-03-19T05:15:26.677Z,48.49
2019-03-19T05:16:28.903Z,48.62
2019-03-19T05:17:31.129Z,48.52
2019-03-19T05:18:33.270Z,48.52
2019-03-19T05:19:35.501Z,48.63
2019-03-19T05:20:37.673Z,48.52
2019-03-19T05:21:39.872Z,48.50
2019-03-19T05:22:42.102Z,48.52
2019-03-19T05:23:44.401Z,48.47
2019-03-19T05:24:46.531Z,48.50
2019-03-19T05:25:49.741Z,48.53
2019-03-19T05:26:51.952Z,48.53
2019-03-19T05:27:54.170Z,48.47
2019-03-19T05:28:56.383Z,48.50
2019-03-19T05:29:58.577Z,48.50
2019-03-19T05:31:00.793Z,48.46
2019-03-19T05:32:02.995Z,48.46
2019-03-19T05:33:05.220Z,48.57
2019-03-19T05:34:07.423Z,48.46
2019-03-19T05:35:09.846Z,48.52
2019-03-19T05:36:12.097Z,48.55
2019-03-19T05:37:14.450Z,48.47
2019-03-19T05:38:16.658Z,48.52
2019-03-19T05:39:18.867Z,48.42
2019-03-19T05:40:21.063Z,48.47
2019-03-19T05:41:23.281Z,48.56
2019-03-19T05:42:25.596Z,48.46
2019-03-19T05:43:27.815Z,48.45
2019-03-19T05:44:33.037Z,48.49
2019-03-19T05:45:35.234Z,48.59
2019-03-19T05:46:37.428Z,48.47
2019-03-19T05:47:40.721Z,48.45
2019-03-19T05:48:43.266Z,48.46
2019-03-19T05:49:45.523Z,48.44
2019-03-19T05:50:47.696Z,48.47
2019-03-19T05:51:49.889Z,48.49
2019-03-19T05:52:52.100Z,48.51
2019-03-19T05:53:54.335Z,48.44
2019-03-19T05:54:56.540Z,48.46
2019-03-19T05:55:58.735Z,48.55
2019-03-19T05:57:00.939Z,48.56
2019-03-19T05:58:03.288Z,48.51
2019-03-19T05:59:05.496Z,48.50
2019-03-19T06:00:07.702Z,48.51
2019-03-19T06:01:09.905Z,48.58
2019-03-19T06:02:12.124Z,48.48
2019-03-19T06:03:14.336Z,48.72
2019-03-19T06:04:16.550Z,48.62
2019-03-19T06:05:20.916Z,48.43
2019-03-19T06:06:22.636Z,48.49
2019-03-19T06:07:24.823Z,48.42
2019-03-19T06:08:27.044Z,48.59
2019-03-19T06:09:29.247Z,48.50
2019-03-19T06:10:31.454Z,48.56
2019-03-19T06:11:33.651Z,48.64
2019-03-19T06:12:35.865Z,48.69
2019-03-19T06:13:38.105Z,48.74
2019-03-19T06:14:40.301Z,48.73
2019-03-19T06:15:42.511Z,48.82
2019-03-19T06:16:44.715Z,48.63
2019-03-19T06:17:46.914Z,48.67
2019-03-19T06:18:49.153Z,48.77
2019-03-19T06:19:51.384Z,49.17
2019-03-19T06:20:53.654Z,49.15
2019-03-19T06:21:56.874Z,48.87
2019-03-19T06:22:59.180Z,49.31
2019-03-19T06:24:01.383Z,49.51
2019-03-19T06:25:03.623Z,49.03
2019-03-19T06:26:05.837Z,49.09
2019-03-19T06:27:08.035Z,49.12
2019-03-19T06:28:10.179Z,49.14
2019-03-19T06:29:12.370Z,49.06
2019-03-19T06:30:14.583Z,49.01
2019-03-19T06:31:16.894Z,49.00
2019-03-19T06:32:19.110Z,49.32
2019-03-19T06:33:21.336Z,49.20
2019-03-19T06:34:23.531Z,49.36
2019-03-19T06:35:25.739Z,49.27
2019-03-19T06:36:30.218Z,49.80
2019-03-19T06:37:32.428Z,49.23
2019-03-19T06:38:34.646Z,49.24
2019-03-19T06:39:36.840Z,49.73
2019-03-19T06:40:39.196Z,49.86
2019-03-19T06:41:41.458Z,49.54
2019-03-19T06:42:43.731Z,49.96
2019-03-19T06:43:47.103Z,50.31
2019-03-19T06:44:49.307Z,50.39
2019-03-19T06:45:51.512Z,50.37
2019-03-19T06:46:53.727Z,50.63
2019-03-19T06:47:55.951Z,50.25
2019-03-19T06:48:58.164Z,50.48
2019-03-19T06:50:00.427Z,50.58
2019-03-19T06:51:02.628Z,50.24
2019-03-19T06:52:04.858Z,50.37
2019-03-19T06:53:06.984Z,50.39
2019-03-19T06:54:09.409Z,50.40
2019-03-19T06:55:11.607Z,50.32
2019-03-19T06:56:14.864Z,50.30
2019-03-19T06:57:17.217Z,50.36
2019-03-19T06:58:19.427Z,50.28
2019-03-19T06:59:21.633Z,50.19
2019-03-19T07:00:23.873Z,50.17
2019-03-19T07:01:29.099Z,50.19
2019-03-19T07:02:31.302Z,50.17
2019-03-19T07:03:33.501Z,50.09
2019-03-19T07:04:35.715Z,50.14
2019-03-19T07:05:38.103Z,50.09
2019-03-19T07:06:42.381Z,50.07
2019-03-19T07:07:44.611Z,50.04
2019-03-19T07:08:46.836Z,49.96
2019-03-19T07:09:49.114Z,49.93
2019-03-19T07:10:51.315Z,49.96
2019-03-19T07:11:53.546Z,49.98
2019-03-19T07:12:55.763Z,49.92
2019-03-19T07:13:57.993Z,49.96
2019-03-19T07:15:00.358Z,49.89
2019-03-19T07:16:02.531Z,49.91
2019-03-19T07:17:04.739Z,49.86
2019-03-19T07:18:06.995Z,49.82
2019-03-19T07:19:09.210Z,49.83
2019-03-19T07:20:11.395Z,49.83
2019-03-19T07:21:13.597Z,49.78
2019-03-19T07:22:15.789Z,49.78
2019-03-19T07:23:17.998Z,49.76
2019-03-19T07:24:20.253Z,49.75
2019-03-19T07:25:22.463Z,49.73
2019-03-19T07:26:24.663Z,49.71
2019-03-19T07:27:27.073Z,49.70
2019-03-19T07:28:29.474Z,49.69
2019-03-19T07:29:31.703Z,49.69
2019-03-19T07:30:33.933Z,49.64
2019-03-19T07:31:36.472Z,49.64
2019-03-19T07:32:38.661Z,49.65
2019-03-19T07:33:40.865Z,49.62
2019-03-19T07:34:43.091Z,49.65
2019-03-19T07:35:45.323Z,49.62
2019-03-19T07:36:47.519Z,49.61
2019-03-19T07:37:49.723Z,49.56
2019-03-19T07:38:52.001Z,49.58
2019-03-19T07:39:57.257Z,49.55
2019-03-19T07:40:59.467Z,49.53
2019-03-19T07:42:01.684Z,49.53
2019-03-19T07:43:03.880Z,49.52
2019-03-19T07:44:06.217Z,49.52
2019-03-19T07:45:08.430Z,49.50
2019-03-19T07:46:10.641Z,49.51
2019-03-19T07:47:13.043Z,49.49
2019-03-19T07:48:16.409Z,49.47
2019-03-19T07:49:18.612Z,49.44
2019-03-19T07:50:20.821Z,49.42
2019-03-19T07:51:23.032Z,49.39
2019-03-19T07:52:25.251Z,49.40
2019-03-19T07:53:27.472Z,49.39
2019-03-19T07:54:30.879Z,49.37
2019-03-19T07:55:33.089Z,49.33
2019-03-19T07:56:35.317Z,49.33
2019-03-19T07:57:37.514Z,49.32
2019-03-19T07:58:45.321Z,49.35
2019-03-19T07:59:44.615Z,49.32
2019-03-19T08:00:47.930Z,49.34
2019-03-19T08:01:50.151Z,49.35
2019-03-19T08:02:55.149Z,49.30
2019-03-19T08:03:57.388Z,49.29
2019-03-19T08:04:59.615Z,49.31
2019-03-19T08:06:01.831Z,49.28
2019-03-19T08:07:04.041Z,49.26
2019-03-19T08:08:06.236Z,49.27
2019-03-19T08:09:08.471Z,49.28
2019-03-19T08:10:10.684Z,49.27
2019-03-19T08:11:13.230Z,49.27
2019-03-19T08:12:15.499Z,49.26
2019-03-19T08:13:17.703Z,49.23
2019-03-19T08:14:20.032Z,49.22
2019-03-19T08:15:22.238Z,49.22
2019-03-19T08:16:27.659Z,49.22
2019-03-19T08:17:28.316Z,49.22
2019-03-19T08:18:30.622Z,49.20
2019-03-19T08:19:32.852Z,49.21
2019-03-19T08:20:35.081Z,49.17
2019-03-19T08:21:37.285Z,49.18
2019-03-19T08:22:39.605Z,49.17
2019-03-19T08:23:41.822Z,49.20
2019-03-19T08:24:44.061Z,49.16
2019-03-19T08:25:46.264Z,49.15
2019-03-19T08:26:49.218Z,49.14
2019-03-19T08:27:53.177Z,49.12
2019-03-19T08:28:55.750Z,49.13
2019-03-19T08:29:58.008Z,49.14
2019-03-19T08:31:00.223Z,49.15
2019-03-19T08:32:02.446Z,49.10
2019-03-19T08:33:04.638Z,49.13
2019-03-19T08:34:06.939Z,49.10
2019-03-19T08:35:09.174Z,49.12
2019-03-19T08:36:11.371Z,49.06
2019-03-19T08:37:15.527Z,49.03
2019-03-19T08:38:17.452Z,48.99
2019-03-19T08:39:20.802Z,49.01
2019-03-19T08:40:23.191Z,49.01
2019-03-19T08:41:25.389Z,49.00
2019-03-19T08:42:27.604Z,49.03
2019-03-19T08:43:29.817Z,49.03
2019-03-19T08:44:32.009Z,48.98
2019-03-19T08:45:34.162Z,49.01
2019-03-19T08:46:36.369Z,49.03
2019-03-19T08:47:38.584Z,49.00
2019-03-19T08:48:40.787Z,49.02
2019-03-19T08:49:43.042Z,49.01
2019-03-19T08:50:45.256Z,48.99
2019-03-19T08:51:47.472Z,49.02
2019-03-19T08:52:49.762Z,48.98
2019-03-19T08:53:51.976Z,49.00
2019-03-19T08:54:54.215Z,49.02
2019-03-19T08:55:56.416Z,48.98
2019-03-19T08:56:58.638Z,48.96
2019-03-19T08:58:03.676Z,48.96
2019-03-19T08:59:06.288Z,48.95
2019-03-19T09:00:08.631Z,48.96
2019-03-19T09:01:11.038Z,48.96
2019-03-19T09:02:15.719Z,48.91
2019-03-19T09:03:17.936Z,48.89
2019-03-19T09:04:20.148Z,48.88
2019-03-19T09:05:22.346Z,48.97
2019-03-19T09:06:24.639Z,48.84
2019-03-19T09:07:26.848Z,48.89
2019-03-19T09:08:29.275Z,48.91
2019-03-19T09:09:31.674Z,48.92
2019-03-19T09:10:33.892Z,48.94
2019-03-19T09:11:36.636Z,48.93
2019-03-19T09:12:40.046Z,48.88
2019-03-19T09:13:42.216Z,48.88
2019-03-19T09:14:44.429Z,48.91
2019-03-19T09:15:46.860Z,48.89
2019-03-19T09:16:49.032Z,48.90
2019-03-19T09:17:51.231Z,48.91
2019-03-19T09:18:53.443Z,48.88
2019-03-19T09:19:55.776Z,48.85
2019-03-19T09:20:57.977Z,48.81
2019-03-19T09:22:00.188Z,48.89
2019-03-19T09:23:02.468Z,48.86
2019-03-19T09:24:04.668Z,48.80
2019-03-19T09:25:07.915Z,48.83
2019-03-19T09:26:10.115Z,48.76
2019-03-19T09:27:12.331Z,48.78
2019-03-19T09:28:14.548Z,48.74
2019-03-19T09:29:17.394Z,48.73
2019-03-19T09:30:19.702Z,48.75
2019-03-19T09:31:21.923Z,48.72
2019-03-19T09:32:24.126Z,48.68
2019-03-19T09:33:26.342Z,48.69
2019-03-19T09:34:28.552Z,48.67
2019-03-19T09:35:30.764Z,48.71
2019-03-19T09:36:32.965Z,48.74
2019-03-19T09:37:35.171Z,48.72
2019-03-19T09:38:37.385Z,48.72
2019-03-19T09:39:41.297Z,48.74
2019-03-19T09:40:44.616Z,48.78
2019-03-19T09:41:47.729Z,48.75
2019-03-19T09:42:49.967Z,48.75
2019-03-19T09:43:53.586Z,48.71
2019-03-19T09:44:58.733Z,48.71
2019-03-19T09:45:59.826Z,48.69
2019-03-19T09:47:02.047Z,48.70
2019-03-19T09:48:04.245Z,48.71
2019-03-19T09:49:06.461Z,48.73
2019-03-19T09:50:08.659Z,48.77
2019-03-19T09:51:10.866Z,48.77
2019-03-19T09:52:13.083Z,48.77
2019-03-19T09:53:19.985Z,48.74
2019-03-19T09:54:22.198Z,48.75
2019-03-19T09:55:24.424Z,48.68
2019-03-19T09:56:26.654Z,48.68
2019-03-19T09:57:28.970Z,48.68
2019-03-19T09:58:31.184Z,48.69
2019-03-19T09:59:33.397Z,48.68
2019-03-19T10:00:35.621Z,48.61
2019-03-19T10:01:37.817Z,48.58
2019-03-19T10:02:40.146Z,48.56
2019-03-19T10:03:42.473Z,48.56
2019-03-19T10:04:44.593Z,48.60
2019-03-19T10:05:46.828Z,48.59
2019-03-19T10:06:49.037Z,48.59
2019-03-19T10:07:51.267Z,48.67
2019-03-19T10:08:54.680Z,48.62
2019-03-19T10:09:56.887Z,48.63
2019-03-19T10:10:59.119Z,48.65
2019-03-19T10:12:01.338Z,48.67
2019-03-19T10:13:03.547Z,48.67
2019-03-19T10:14:05.743Z,48.65
2019-03-19T10:15:07.957Z,48.58
2019-03-19T10:16:10.165Z,48.63
2019-03-19T10:17:12.399Z,48.62
2019-03-19T10:18:14.597Z,48.61
2019-03-19T10:19:16.811Z,48.61
2019-03-19T10:20:19.017Z,48.57
2019-03-19T10:21:21.249Z,48.54
2019-03-19T10:22:23.451Z,48.56
2019-03-19T10:23:25.673Z,48.51
2019-03-19T10:24:27.857Z,48.50
2019-03-19T10:25:30.065Z,48.52
2019-03-19T10:26:32.501Z,48.47
2019-03-19T10:27:34.710Z,48.53
2019-03-19T10:28:36.925Z,48.54
2019-03-19T10:29:39.123Z,48.52
2019-03-19T10:30:41.336Z,48.55
2019-03-19T10:31:43.557Z,48.52
2019-03-19T10:32:45.764Z,48.54
2019-03-19T10:33:47.981Z,48.52
2019-03-19T10:34:50.195Z,48.53
2019-03-19T10:35:52.450Z,48.57
2019-03-19T10:36:54.655Z,48.55
2019-03-19T10:37:59.923Z,48.54
2019-03-19T10:39:02.116Z,48.57
2019-03-19T10:40:07.145Z,48.58
2019-03-19T10:41:09.367Z,48.56
2019-03-19T10:42:11.621Z,48.55
2019-03-19T10:43:13.840Z,48.57
2019-03-19T10:44:16.060Z,48.53
2019-03-19T10:45:18.259Z,48.52
2019-03-19T10:46:20.488Z,48.50
2019-03-19T10:47:22.862Z,48.51
2019-03-19T10:48:25.078Z,48.49
2019-03-19T10:49:27.283Z,48.50
2019-03-19T10:50:30.395Z,48.49
2019-03-19T10:51:35.003Z,48.44
2019-03-19T10:52:36.469Z,48.51
2019-03-19T10:53:38.682Z,48.45
2019-03-19T10:54:40.877Z,48.49
2019-03-19T10:55:43.277Z,48.46
2019-03-19T10:56:45.603Z,48.49
2019-03-19T10:57:47.815Z,48.45
2019-03-19T10:58:50.029Z,48.46
2019-03-19T10:59:52.229Z,48.46
2019-03-19T11:00:54.451Z,48.40
2019-03-19T11:01:56.685Z,48.44
2019-03-19T11:02:58.871Z,48.42
2019-03-19T11:04:02.196Z,48.41
2019-03-19T11:05:04.406Z,48.39
2019-03-19T11:06:06.647Z,48.42
2019-03-19T11:07:08.872Z,48.39
2019-03-19T11:08:11.084Z,48.37
2019-03-19T11:09:13.307Z,48.42
2019-03-19T11:10:16.237Z,48.37
2019-03-19T11:11:18.463Z,48.37
2019-03-19T11:12:20.671Z,48.36
2019-03-19T11:13:22.883Z,48.36
2019-03-19T11:14:25.113Z,48.33
2019-03-19T11:15:27.331Z,48.35
2019-03-19T11:16:29.531Z,48.36
2019-03-19T11:17:31.722Z,48.34
2019-03-19T11:18:33.932Z,48.36
2019-03-19T11:19:36.142Z,48.36
2019-03-19T11:20:38.350Z,48.34
2019-03-19T11:21:40.589Z,48.35
2019-03-19T11:22:42.774Z,48.35
2019-03-19T11:23:44.966Z,48.33
2019-03-19T11:24:48.273Z,48.33
2019-03-19T11:25:54.416Z,48.31
2019-03-19T11:26:54.362Z,48.32
2019-03-19T11:27:56.569Z,48.38
2019-03-19T11:28:58.797Z,48.35
2019-03-19T11:30:01.014Z,48.38
2019-03-19T11:31:03.195Z,48.32
2019-03-19T11:32:05.422Z,48.32
2019-03-19T11:33:07.634Z,48.36
2019-03-19T11:34:09.844Z,48.36
2019-03-19T11:35:12.049Z,48.36
2019-03-19T11:36:14.277Z,48.38
2019-03-19T11:37:18.644Z,48.38
2019-03-19T11:38:20.846Z,48.34
2019-03-19T11:39:23.035Z,48.35
2019-03-19T11:40:25.972Z,48.37
2019-03-19T11:41:28.552Z,48.38
2019-03-19T11:42:30.753Z,48.37
2019-03-19T11:43:36.048Z,48.37
2019-03-19T11:44:38.268Z,48.38
2019-03-19T11:45:40.488Z,48.40
2019-03-19T11:46:42.789Z,48.44
2019-03-19T11:47:44.997Z,48.50
2019-03-19T11:48:47.207Z,48.52
2019-03-19T11:49:49.419Z,48.54
2019-03-19T11:50:51.611Z,48.52
2019-03-19T11:51:53.954Z,48.56
2019-03-19T11:52:56.182Z,48.55
2019-03-19T11:53:58.392Z,48.51
2019-03-19T11:55:00.598Z,48.47
2019-03-19T11:56:02.802Z,48.46
2019-03-19T11:57:05.023Z,48.41
2019-03-19T11:58:07.244Z,48.37
2019-03-19T11:59:09.454Z,48.37
2019-03-19T12:00:14.294Z,48.34
2019-03-19T12:01:16.502Z,48.34
2019-03-19T12:02:25.971Z,48.35
2019-03-19T12:03:22.600Z,48.31
2019-03-19T12:04:26.719Z,48.30
2019-03-19T12:05:28.668Z,48.29
2019-03-19T12:06:30.868Z,48.36
2019-03-19T12:07:33.094Z,48.44
2019-03-19T12:08:35.291Z,48.42
2019-03-19T12:09:39.981Z,48.44
2019-03-19T12:10:41.352Z,48.43
2019-03-19T12:11:43.587Z,48.47
2019-03-19T12:12:45.828Z,48.51
2019-03-19T12:13:48.057Z,48.53
2019-03-19T12:14:50.318Z,48.52
2019-03-19T12:15:52.520Z,48.51
2019-03-19T12:16:54.734Z,48.44
2019-03-19T12:17:56.960Z,48.42
2019-03-19T12:18:59.195Z,48.43
2019-03-19T12:20:01.450Z,48.44
2019-03-19T12:21:03.762Z,48.36
2019-03-19T12:22:06.003Z,48.41
2019-03-19T12:23:08.207Z,48.38
2019-03-19T12:24:10.416Z,48.39
2019-03-19T12:25:12.623Z,48.36
2019-03-19T12:26:14.850Z,48.40
2019-03-19T12:27:17.069Z,48.39
2019-03-19T12:28:19.264Z,48.31
2019-03-19T12:29:21.483Z,48.33
2019-03-19T12:30:26.171Z,48.37
2019-03-19T12:31:27.544Z,48.34
2019-03-19T12:32:32.372Z,48.33
2019-03-19T12:33:40.913Z,48.37
2019-03-19T12:34:38.444Z,48.32
2019-03-19T12:35:42.348Z,48.36
2019-03-19T12:36:44.563Z,48.35
2019-03-19T12:37:46.779Z,48.36
2019-03-19T12:38:48.995Z,48.35
2019-03-19T12:39:51.190Z,48.33
2019-03-19T12:40:53.379Z,48.33
2019-03-19T12:41:55.577Z,48.35
2019-03-19T12:42:57.790Z,48.35
2019-03-19T12:43:59.989Z,48.35
2019-03-19T12:45:02.137Z,48.33
2019-03-19T12:46:04.353Z,48.33
2019-03-19T12:47:06.554Z,48.30
2019-03-19T12:48:08.820Z,48.31
2019-03-19T12:49:10.985Z,48.30
2019-03-19T12:50:13.228Z,48.30
2019-03-19T12:51:15.445Z,48.31
2019-03-19T12:52:17.648Z,48.32
2019-03-19T12:53:19.975Z,48.29
2019-03-19T12:54:22.179Z,48.30
2019-03-19T12:55:24.392Z,48.28
2019-03-19T12:56:26.603Z,48.26
2019-03-19T12:57:28.819Z,48.28
2019-03-19T12:58:31.021Z,48.33
2019-03-19T12:59:33.299Z,48.36
2019-03-19T13:00:35.582Z,48.30
2019-03-19T13:01:37.844Z,48.30
2019-03-19T13:02:40.199Z,48.29
2019-03-19T13:03:42.417Z,48.29
2019-03-19T13:04:44.616Z,48.25
2019-03-19T13:05:46.823Z,48.27
2019-03-19T13:06:49.045Z,48.29
2019-03-19T13:07:51.272Z,48.31
2019-03-19T13:08:53.479Z,48.36
2019-03-19T13:09:57.394Z,48.40
2019-03-19T13:10:59.599Z,48.38
2019-03-19T13:12:01.806Z,48.35
2019-03-19T13:13:04.024Z,48.33
2019-03-19T13:14:06.219Z,48.29
2019-03-19T13:15:08.429Z,48.30
2019-03-19T13:16:10.637Z,48.28
2019-03-19T13:17:13.034Z,48.29
2019-03-19T13:18:16.442Z,48.23
2019-03-19T13:19:18.614Z,48.25
2019-03-19T13:20:20.823Z,48.29
2019-03-19T13:21:23.040Z,48.32
2019-03-19T13:22:25.235Z,48.34
2019-03-19T13:23:27.590Z,48.38
2019-03-19T13:24:29.796Z,48.40